Latest Weather Observations for Newman Airport

IDW60801

Issued at 10:32 pm WST Sunday 5 July 2015 (issued every 30 minutes, with the page automatically refreshed every 10 minutes)

About weather observations | Map of weather stations | Latest weather observations for WA | Other Formats
Station Details ID: 007176 Name: NEWMAN AERO Lat: -23.42 Lon: 119.80 Height: 524.0 m
Data from the previous 72 hours. | See also: Recent months at Newman Airport
Date/Time
WST
Temp
°C
App
Temp
°C
Dew
Point
Rel
Hum
%
Delta-T
°C
Wind Press
QNH
hPa
Press
MSL
hPa
Rain
since 9 am
mm
Dir
 
Spd
km/h
Gust
km/h
Spd
kts
Gust
kts
05/10:30pm 10.3 7.7 0.9 52 4.0 NNW 4 6 2 3 1020.6 1019.8 0.0
05/10:00pm 10.7 7.5 1.0 51 4.1 NNW 7 7 4 4 1020.7 1019.9 0.0
05/09:30pm 11.9 9.0 1.5 49 4.5 NNE 6 7 3 4 1020.8 1020.0 0.0
05/09:00pm 12.3 9.5 1.9 49 4.6 S 6 7 3 4 1020.8 1020.0 0.0
05/08:30pm 12.8 9.9 1.5 46 5.0 S 6 7 3 4 1020.6 1019.8 0.0
05/08:00pm 13.8 10.7 1.5 43 5.5 S 7 7 4 4 1020.5 1019.7 0.0
05/07:30pm 14.6 11.5 1.2 40 5.9 SE 7 9 4 5 1020.3 1019.5 0.0
05/07:00pm 15.6 13.5 1.7 39 6.3 ESE 2 7 1 4 1020.0 1019.1 0.0
05/06:30pm 16.5 14.7 1.4 36 6.8 CALM 0 0 0 0 1020.0 1019.1 0.0
05/06:00pm 19.0 17.2 1.5 31 8.1 CALM 0 0 0 0 1019.7 1018.8 0.0
05/05:30pm 21.1 19.2 0.3 25 9.6 CALM 0 0 0 0 1019.7 1018.8 0.0
05/05:00pm 22.9 19.6 -1.2 20 10.9 SE 6 9 3 5 1019.6 1018.7 0.0
05/04:30pm 24.1 21.7 -0.2 20 11.4 NNE 2 7 1 4 1019.3 1018.5 0.0
05/04:00pm 23.6 20.2 -0.6 20 11.2 ESE 7 13 4 7 1019.3 1018.5 0.0
05/03:30pm 23.9 19.7 -1.1 19 11.5 NE 11 15 6 8 1019.6 1018.7 0.0
05/03:00pm 23.7 20.4 -1.3 19 11.4 SE 6 11 3 6 1019.7 1018.8 0.0
05/02:30pm 23.5 19.6 -1.4 19 11.3 ENE 9 15 5 8 1019.8 1018.9 0.0
05/02:00pm 23.5 19.3 -0.7 20 11.1 ESE 11 20 6 11 1019.9 1019.0 0.0
05/01:30pm 23.7 19.4 -1.3 19 11.4 NE 11 19 6 10 1020.2 1019.4 0.0
05/01:00pm 23.4 19.6 -0.8 20 11.1 ENE 9 19 5 10 1020.4 1019.6 0.0
05/12:30pm 23.0 18.5 -0.5 21 10.8 ENE 13 20 7 11 1021.0 1020.2 0.0
05/12:00pm 22.6 17.7 -0.8 21 10.7 SE 15 24 8 13 1021.7 1020.8 0.0
05/11:30am 22.4 17.5 -0.3 22 10.5 E 15 30 8 16 1022.1 1021.3 0.0
05/11:00am 21.8 17.4 0.4 24 9.9 E 13 20 7 11 1022.3 1021.5 0.0
05/10:30am 20.8 17.3 1.1 27 9.2 E 9 13 5 7 1022.7 1021.9 0.0
05/10:00am 19.0 16.6 2.0 32 7.9 SSE 4 7 2 4 1022.8 1022.0 0.0
05/09:30am 16.4 14.6 1.3 36 6.8 CALM 0 0 0 0 1023.0 1022.2 0.0
05/09:00am 14.0 12.3 1.6 43 5.5 CALM 0 0 0 0 1023.0 1022.2 0.0
05/08:30am 11.7 8.7 0.8 47 4.7 SW 6 9 3 5 1022.7 1021.9 0.0
05/08:00am 9.6 6.6 0.5 53 3.8 SW 6 7 3 4 1022.7 1021.9 0.0
05/07:30am 7.3 4.9 -0.2 59 3.0 SW 2 6 1 3 1022.6 1021.8 0.0
05/07:00am 5.9 3.8 -0.8 62 2.6 CALM 0 0 0 0 1022.2 1021.4 0.0
05/06:30am 5.5 2.2 -1.0 63 2.5 SW 6 7 3 4 1021.9 1021.1 0.0
05/06:00am 5.7 2.2 -1.0 62 2.6 WSW 7 9 4 5 1021.7 1020.8 0.0
05/05:30am 6.1 2.7 -0.8 61 2.7 WSW 7 11 4 6 1021.6 1020.7 0.0
05/05:00am 6.2 2.4 -0.7 61 2.7 WSW 9 11 5 6 1021.3 1020.5 0.0
05/04:30am 6.0 2.2 -0.7 62 2.6 WSW 9 11 5 6 1021.0 1020.2 0.0
05/04:00am 5.9 2.5 -0.6 63 2.5 WSW 7 9 4 5 1021.0 1020.2 0.0
05/03:30am 6.1 2.9 -0.6 62 2.6 WSW 6 7 3 4 1021.0 1020.2 0.0
05/03:00am 6.3 4.3 -0.4 62 2.6 CALM 0 0 0 0 1021.0 1020.2 0.0
05/02:30am 6.7 3.3 -0.5 60 2.8 WSW 7 7 4 4 1021.2 1020.4 0.0
05/02:00am 7.2 3.8 -0.3 59 3.0 WSW 7 11 4 6 1021.5 1020.6 0.0
05/01:30am 7.4 3.7 -0.3 58 3.1 SW 9 9 5 5 1021.5 1020.6 0.0
05/01:00am 7.9 4.5 -0.6 55 3.4 SW 7 11 4 6 1021.5 1020.6 0.0
05/12:30am 8.2 4.5 -0.3 55 3.4 SW 9 11 5 6 1021.5 1020.6 0.0
05/12:00am 8.2 4.9 0.0 56 3.3 SW 7 9 4 5 1021.6 1020.7 0.0
 
Date/Time
WST
Temp
°C
App
Temp
°C
Dew
Point
Rel
Hum
%
Delta-T
°C
Wind Press
QNH
hPa
Press
MSL
hPa
Rain
since 9 am
mm
Dir
 
Spd
km/h
Gust
km/h
Spd
kts
Gust
kts
04/11:30pm 8.8 5.7 0.3 55 3.5 SSW 6 9 3 5 1021.8 1021.0 0.0
04/11:00pm 9.5 6.4 0.4 53 3.8 SSW 6 7 3 4 1021.8 1021.0 0.0
04/10:30pm 9.9 6.8 0.3 51 4.0 SSW 6 7 3 4 1021.9 1021.1 0.0
04/10:00pm 10.4 7.1 0.2 49 4.3 SSW 7 9 4 5 1022.1 1021.3 0.0
04/09:30pm 11.2 9.3 0.3 47 4.6 CALM 0 0 0 0 1022.0 1021.2 0.0
04/09:00pm 12.5 10.6 0.3 43 5.2 CALM 0 0 0 0 1021.9 1021.1 0.0
04/08:30pm 13.3 10.0 0.0 40 5.7 SSE 7 7 4 4 1021.9 1021.1 0.0
04/08:00pm 14.3 10.6 0.2 38 6.1 SSE 9 11 5 6 1021.8 1021.0 0.0
04/07:30pm 15.3 11.3 0.3 36 6.6 SSE 11 13 6 7 1021.5 1020.6 0.0
04/07:00pm 15.9 12.3 0.5 35 6.8 SE 9 11 5 6 1021.3 1020.5 0.0
04/06:30pm 17.6 14.3 -0.2 30 7.9 SE 7 9 4 5 1021.1 1020.3 0.0
04/06:00pm 19.1 15.7 -0.8 26 8.8 SE 7 9 4 5 1020.9 1020.1 0.0
04/05:30pm 21.0 17.2 -0.9 23 9.9 ESE 9 11 5 6 1020.7 1019.9 0.0
04/05:00pm 22.9 19.0 -1.2 20 10.9 ESE 9 13 5 7 1020.6 1019.8 0.0
04/04:30pm 23.6 18.9 -2.1 18 11.5 ESE 13 22 7 12 1020.5 1019.7 0.0
04/04:00pm 23.6 18.9 -2.1 18 11.5 ESE 13 20 7 11 1020.6 1019.8 0.0
04/03:30pm 23.8 18.7 -1.9 18 11.6 ESE 15 20 8 11 1020.6 1019.8 0.0
04/03:00pm 24.0 18.9 -1.8 18 11.7 ESE 15 30 8 16 1020.7 1019.9 0.0
04/02:30pm 23.9 18.4 -1.8 18 11.6 ENE 17 28 9 15 1020.8 1020.0 0.0
04/02:00pm 24.0 18.5 -1.8 18 11.7 ESE 17 24 9 13 1021.0 1020.2 0.0
04/01:30pm 23.7 18.3 -1.3 19 11.4 ESE 17 22 9 12 1021.1 1020.3 0.0
04/01:00pm 23.7 18.7 -1.3 19 11.4 ESE 15 28 8 15 1021.3 1020.5 0.0
04/12:30pm 23.0 17.3 -1.1 20 11.0 E 19 30 10 16 1021.7 1020.8 0.0
04/12:00pm 22.7 16.7 -1.4 20 10.9 E 20 35 11 19 1022.2 1021.4 0.0
04/11:30am 22.4 16.4 -1.6 20 10.8 ESE 20 30 11 16 1022.7 1021.9 0.0
04/11:00am 21.4 16.8 -1.2 22 10.1 E 13 24 7 13 1023.1 1022.3 0.0
04/10:30am 20.6 17.0 0.4 26 9.3 E 9 17 5 9 1023.6 1022.8 0.0
04/10:00am 19.3 16.0 0.4 28 8.6 E 7 11 4 6 1023.8 1023.0 0.0
04/09:30am 17.4 14.5 1.4 34 7.3 ESE 6 9 3 5 1023.9 1023.1 0.0
04/09:00am 14.4 12.6 1.3 41 5.8 CALM 0 0 0 0 1023.7 1022.9 0.0
04/08:30am 12.2 10.5 1.8 49 4.6 CALM 0 0 0 0 1023.6 1022.8 0.0
04/08:00am 9.5 6.6 1.2 56 3.5 WSW 6 7 3 4 1023.3 1022.6 0.0
04/07:30am 7.7 4.5 0.9 62 2.8 WSW 7 9 4 5 1023.1 1022.3 0.0
04/07:00am 5.6 3.6 0.2 68 2.1 CALM 0 0 0 0 1022.9 1022.1 0.0
04/06:30am 5.5 3.5 0.1 68 2.1 CALM 0 0 0 0 1022.7 1021.9 0.0
04/06:00am 5.5 3.5 -0.1 67 2.2 CALM 0 0 0 0 1022.4 1021.6 0.0
04/05:30am 6.3 3.6 0.2 65 2.4 WSW 4 7 2 4 1022.2 1021.4 0.0
04/05:00am 6.5 2.9 0.4 65 2.5 WSW 9 11 5 6 1022.0 1021.2 0.0
04/04:30am 6.5 2.9 0.4 65 2.5 SW 9 11 5 6 1022.0 1021.2 0.0
04/04:00am 7.1 4.1 0.8 64 2.6 SW 6 7 3 4 1021.9 1021.1 0.0
04/03:30am 7.4 5.5 0.8 63 2.7 CALM 0 0 0 0 1022.0 1021.2 0.0
04/03:00am 7.8 4.8 0.8 61 2.9 SW 6 7 3 4 1022.3 1021.5 0.0
04/02:30am 8.1 4.9 0.8 60 3.0 SW 7 9 4 5 1022.3 1021.5 0.0
04/02:00am 8.4 5.2 0.9 59 3.1 SW 7 9 4 5 1022.4 1021.6 0.0
04/01:30am 8.1 4.9 1.0 61 3.0 WSW 7 9 4 5 1022.5 1021.7 0.0
04/01:00am 8.3 6.5 1.0 60 3.0 CALM 0 0 0 0 1022.5 1021.7 0.0
04/12:30am 8.4 6.6 1.3 61 3.0 CALM 0 0 0 0 1022.4 1021.6 0.0
04/12:00am 8.6 6.8 1.5 61 3.0 CALM 0 0 0 0 1022.5 1021.7 0.0
 
Date/Time
WST
Temp
°C
App
Temp
°C
Dew
Point
Rel
Hum
%
Delta-T
°C
Wind Press
QNH
hPa
Press
MSL
hPa
Rain
since 9 am
mm
Dir
 
Spd
km/h
Gust
km/h
Spd
kts
Gust
kts
03/11:30pm 9.3 7.6 1.7 59 3.3 CALM 0 0 0 0 1022.7 1021.9 0.0
03/11:00pm 9.8 8.1 1.7 57 3.5 CALM 0 0 0 0 1022.8 1022.0 0.0
03/10:30pm 10.1 8.4 2.0 57 3.5 CALM 0 0 0 0 1022.9 1022.1 0.0
03/10:00pm 11.0 9.4 2.3 55 3.8 CALM 0 0 0 0 1023.0 1022.2 0.0
03/09:30pm 11.6 10.0 2.4 53 4.1 CALM 0 0 0 0 1022.9 1022.1 0.0
03/09:00pm 12.3 10.7 2.5 51 4.4 CALM 0 0 0 0 1022.9 1022.1 0.0
03/08:30pm 12.7 11.1 2.6 50 4.6 CALM 0 0 0 0 1022.9 1022.1 0.0
03/08:00pm 13.3 11.7 2.5 48 4.9 CALM 0 0 0 0 1022.8 1022.0 0.0
03/07:30pm 14.1 12.5 2.4 45 5.3 CALM 0 0 0 0 1022.5 1021.7 0.0
03/07:00pm 15.5 13.8 2.0 40 6.1 CALM 0 0 0 0 1022.2 1021.4 0.0
03/06:30pm 17.0 15.4 2.6 38 6.7 CALM 0 0 0 0 1022.0 1021.2 0.0
03/06:00pm 19.1 17.0 1.6 31 8.1 SE 2 6 1 3 1021.8 1021.0 0.0
03/05:30pm 21.1 17.9 0.9 26 9.4 SE 7 9 4 5 1021.5 1020.6 0.0
03/05:00pm 22.4 19.2 0.9 24 10.1 SSE 7 11 4 6 1021.5 1020.6 0.0
03/04:30pm 23.0 19.4 0.8 23 10.5 ESE 9 15 5 8 1021.3 1020.5 0.0
03/04:00pm 23.1 19.1 0.2 22 10.7 SE 11 19 6 10 1021.1 1020.3 0.0
03/03:30pm 23.2 18.4 0.3 22 10.7 SE 15 24 8 13 1021.0 1020.2 0.0
03/03:00pm 23.8 19.1 0.8 22 10.9 ESE 15 24 8 13 1021.2 1020.4 0.0
03/02:30pm 23.5 19.1 0.6 22 10.8 SSE 13 20 7 11 1021.3 1020.5 0.0
03/02:00pm 23.4 19.0 0.5 22 10.8 E 13 22 7 12 1021.3 1020.5 0.0
03/01:30pm 23.0 18.7 0.8 23 10.5 E 13 20 7 11 1021.7 1020.8 0.0
03/01:00pm 22.6 17.8 0.4 23 10.3 ESE 15 22 8 12 1022.0 1021.2 0.0
03/12:30pm 22.6 18.3 1.0 24 10.2 ESE 13 20 7 11 1022.4 1021.6 0.0
03/12:00pm 22.5 17.4 0.9 24 10.1 SE 17 28 9 15 1023.0 1022.2 0.0
03/11:30am 22.6 17.9 1.0 24 10.2 SE 15 22 8 12 1023.7 1022.9 0.0
03/11:00am 22.1 17.8 1.2 25 9.8 ENE 13 24 7 13 1024.0 1023.2 0.0
03/10:30am 22.0 18.3 2.2 27 9.5 ENE 11 20 6 11 1024.3 1023.5 0.0
03/10:00am 20.9 17.5 4.0 33 8.3 NE 11 17 6 9 1024.5 1023.7 0.0
03/09:30am 18.7 15.9 3.3 36 7.4 ENE 7 13 4 7 1024.7 1023.9 0.0
03/09:00am 16.3 14.9 3.7 43 6.0 CALM 0 0 0 0 1024.8 1024.0 0.0
03/08:30am 13.2 10.6 3.0 50 4.7 WSW 6 7 3 4 1024.8 1024.0 0.0
03/08:00am 11.0 8.3 2.6 56 3.7 WSW 6 7 3 4 1024.4 1023.6 0.0
03/07:30am 8.4 5.6 1.8 63 2.8 WSW 6 7 3 4 1024.2 1023.4 0.0
03/07:00am 6.9 3.4 1.2 67 2.3 WSW 9 9 5 5 1023.9 1023.1 0.0
03/06:30am 6.7 3.5 1.0 67 2.3 WSW 7 9 4 5 1023.8 1023.0 0.0
03/06:00am 7.0 3.9 1.1 66 2.4 WSW 7 9 4 5 1023.5 1022.7 0.0
03/05:30am 7.0 3.9 1.1 66 2.4 WSW 7 9 4 5 1023.2 1022.4 0.0
03/05:00am 7.2 3.7 1.3 66 2.4 WSW 9 9 5 5 1023.0 1022.2 0.0
03/04:30am 7.4 4.3 1.3 65 2.5 WSW 7 9 4 5 1022.9 1022.1 0.0
03/04:00am 7.4 3.9 1.3 65 2.5 WSW 9 11 5 6 1022.9 1022.1 0.0
03/03:30am 7.7 4.6 1.3 64 2.7 WSW 7 9 4 5 1023.0 1022.2 0.0
03/03:00am 7.9 5.0 1.3 63 2.8 WSW 6 7 3 4 1023.1 1022.3 0.0
03/02:30am 7.9 4.8 1.5 64 2.7 WSW 7 9 4 5 1023.3 1022.6 0.0
03/02:00am 8.0 6.3 1.6 64 2.7 CALM 0 0 0 0 1023.5 1022.7 0.0
03/01:30am 8.7 7.0 2.1 63 2.8 CALM 0 0 0 0 1023.6 1022.8 0.0
03/01:00am 8.6 5.7 1.7 62 2.9 E 6 7 3 4 1023.9 1023.1 0.0
03/12:30am 9.3 6.5 2.2 61 3.1 E 6 7 3 4 1024.0 1023.2 0.0
03/12:00am 9.5 6.5 1.9 59 3.3 E 7 9 4 5 1024.0 1023.2 0.0
 
Date/Time
WST
Temp
°C
App
Temp
°C
Dew
Point
Rel
Hum
%
Delta-T
°C
Wind Press
QNH
hPa
Press
MSL
hPa
Rain
since 9 am
mm
Dir
 
Spd
km/h
Gust
km/h
Spd
kts
Gust
kts
02/11:30pm 10.0 8.3 2.1 58 3.4 CALM 0 0 0 0 1024.0 1023.2 0.0
02/11:00pm 10.4 8.8 2.5 58 3.5 CALM 0 0 0 0 1024.2 1023.4 0.0

Other Formats:

Comma delimited format used in spreadsheet applications
http://www.bom.gov.au/fwo/IDW60801/IDW60801.94317.axf

JavaScript Object Notation format (JSON) in row-major order
http://www.bom.gov.au/fwo/IDW60801/IDW60801.94317.json